createdAt,value
2022-08-30T00:02:10.775Z,20.80
2022-08-30T00:04:37.645Z,20.70
2022-08-30T00:07:04.627Z,20.70
2022-08-30T00:09:32.803Z,20.70
2022-08-30T00:11:59.829Z,20.70
2022-08-30T00:14:27.662Z,20.60
2022-08-30T00:16:54.589Z,20.60
2022-08-30T00:19:21.509Z,20.60
2022-08-30T00:21:48.529Z,20.60
2022-08-30T00:24:15.380Z,20.50
2022-08-30T00:26:42.270Z,20.50
2022-08-30T00:29:09.294Z,20.50
2022-08-30T00:31:36.191Z,20.50
2022-08-30T00:34:03.032Z,20.50
2022-08-30T00:36:29.936Z,20.40
2022-08-30T00:38:56.786Z,20.40
2022-08-30T00:41:23.763Z,20.40
2022-08-30T00:43:50.591Z,20.40
2022-08-30T00:46:17.489Z,20.30
2022-08-30T00:48:49.366Z,20.30
2022-08-30T00:51:17.157Z,20.30
2022-08-30T00:53:48.250Z,20.30
2022-08-30T00:56:16.138Z,20.30
2022-08-30T00:58:46.849Z,20.20
2022-08-30T01:01:14.451Z,20.20
2022-08-30T01:03:43.498Z,20.20
2022-08-30T01:06:10.739Z,20.20
2022-08-30T01:08:39.011Z,20.10
2022-08-30T01:11:06.410Z,20.20
2022-08-30T01:13:34.637Z,20.10
2022-08-30T01:16:02.628Z,20.10
2022-08-30T01:18:31.399Z,20.10
2022-08-30T01:21:17.008Z,20.10
2022-08-30T01:23:45.777Z,20.10
2022-08-30T01:26:15.887Z,20.10
2022-08-30T01:28:48.597Z,20.10
2022-08-30T01:31:15.800Z,20.10
2022-08-30T01:33:42.824Z,20.10
2022-08-30T01:36:12.980Z,20.00
2022-08-30T01:38:56.830Z,20.00
2022-08-30T01:41:36.198Z,20.00
2022-08-30T01:44:10.232Z,20.00
2022-08-30T01:46:42.046Z,20.00
2022-08-30T01:49:12.926Z,20.00
2022-08-30T01:51:40.342Z,20.00
2022-08-30T01:54:07.711Z,20.00
2022-08-30T01:56:35.310Z,20.00
2022-08-30T01:59:03.279Z,20.00
2022-08-30T02:01:33.313Z,20.00
2022-08-30T02:04:00.577Z,19.90
2022-08-30T02:06:27.968Z,19.90
2022-08-30T02:08:55.316Z,20.00
2022-08-30T02:11:22.330Z,19.90
2022-08-30T02:13:49.835Z,19.90
2022-08-30T02:16:20.589Z,19.90
2022-08-30T02:18:47.411Z,19.90
2022-08-30T02:21:14.830Z,19.90
2022-08-30T02:23:42.526Z,19.80
2022-08-30T02:26:10.755Z,19.80
2022-08-30T02:28:42.890Z,19.80
2022-08-30T02:31:18.029Z,19.80
2022-08-30T02:33:47.722Z,19.80
2022-08-30T02:36:15.410Z,19.80
2022-08-30T02:38:42.262Z,19.80
2022-08-30T02:41:09.204Z,19.80
2022-08-30T02:43:36.239Z,19.80
2022-08-30T02:46:03.398Z,19.70
2022-08-30T02:48:30.402Z,19.70
2022-08-30T02:50:57.276Z,19.70
2022-08-30T02:53:24.191Z,19.70
2022-08-30T02:55:54.003Z,19.60
2022-08-30T02:58:20.904Z,19.60
2022-08-30T03:00:47.764Z,19.60
2022-08-30T03:03:14.785Z,19.60
2022-08-30T03:05:41.692Z,19.60
2022-08-30T03:08:09.705Z,19.60
2022-08-30T03:10:38.337Z,19.60
2022-08-30T03:13:07.616Z,19.50
2022-08-30T03:15:37.408Z,19.50
2022-08-30T03:18:04.256Z,19.50
2022-08-30T03:20:31.186Z,19.50
2022-08-30T03:22:58.130Z,19.50
2022-08-30T03:25:25.062Z,19.50
2022-08-30T03:27:52.086Z,19.50
2022-08-30T03:30:20.580Z,19.50
2022-08-30T03:32:48.146Z,19.40
2022-08-30T03:35:16.771Z,19.50
2022-08-30T03:37:43.811Z,19.40
2022-08-30T03:40:13.338Z,19.40
2022-08-30T03:42:41.399Z,19.40
2022-08-30T03:45:11.303Z,19.40
2022-08-30T03:47:38.117Z,19.40
2022-08-30T03:50:08.438Z,19.40
2022-08-30T03:52:35.496Z,19.40
2022-08-30T03:55:02.344Z,19.40
2022-08-30T03:57:29.257Z,19.40
2022-08-30T03:59:56.774Z,19.40
2022-08-30T04:02:23.789Z,19.40
2022-08-30T04:04:51.062Z,19.40
2022-08-30T04:07:19.772Z,19.40
2022-08-30T04:09:47.411Z,19.30
2022-08-30T04:12:14.320Z,19.30
2022-08-30T04:14:45.306Z,19.30
2022-08-30T04:17:12.141Z,19.30
2022-08-30T04:19:39.165Z,19.20
2022-08-30T04:22:06.078Z,19.20
2022-08-30T04:24:34.487Z,19.20
2022-08-30T04:27:01.627Z,19.20
2022-08-30T04:29:28.679Z,19.20
2022-08-30T04:31:55.529Z,19.10
2022-08-30T04:34:23.164Z,19.10
2022-08-30T04:36:50.204Z,19.10
2022-08-30T04:39:20.634Z,19.10
2022-08-30T04:41:47.791Z,19.00
2022-08-30T04:44:19.213Z,19.00
2022-08-30T04:46:46.804Z,19.00
2022-08-30T04:49:14.118Z,19.00
2022-08-30T04:51:41.157Z,19.00
2022-08-30T04:54:07.963Z,18.90
2022-08-30T04:56:34.800Z,18.90
2022-08-30T04:59:01.918Z,18.90
2022-08-30T05:01:31.837Z,18.90
2022-08-30T05:04:04.269Z,18.90
2022-08-30T05:06:31.346Z,18.90
2022-08-30T05:09:00.529Z,18.90
2022-08-30T05:11:28.095Z,18.80
2022-08-30T05:13:55.338Z,18.80
2022-08-30T05:16:22.333Z,18.90
2022-08-30T05:18:51.760Z,18.80
2022-08-30T05:21:25.430Z,18.80
2022-08-30T05:23:55.988Z,18.80
2022-08-30T05:26:31.831Z,18.80
2022-08-30T05:28:59.286Z,18.80
2022-08-30T05:31:32.472Z,18.80
2022-08-30T05:33:59.533Z,18.80
2022-08-30T05:36:28.783Z,18.70
2022-08-30T05:38:56.172Z,18.70
2022-08-30T05:41:25.948Z,18.80
2022-08-30T05:43:57.962Z,18.80
2022-08-30T05:46:26.282Z,18.80
2022-08-30T05:48:53.301Z,18.80
2022-08-30T05:51:23.309Z,18.80
2022-08-30T05:53:51.834Z,18.90
2022-08-30T05:56:24.921Z,18.80
2022-08-30T05:58:53.583Z,18.80
2022-08-30T06:01:32.149Z,18.80
2022-08-30T06:04:04.120Z,18.80
2022-08-30T06:06:35.563Z,18.80
2022-08-30T06:09:05.143Z,18.80
2022-08-30T06:11:33.710Z,18.80
2022-08-30T06:14:01.285Z,18.80
2022-08-30T06:16:29.338Z,18.80
2022-08-30T06:18:58.084Z,18.80
2022-08-30T06:21:30.577Z,18.90
2022-08-30T06:23:58.479Z,18.90
2022-08-30T06:26:26.997Z,18.90
2022-08-30T06:28:54.433Z,18.90
2022-08-30T06:31:23.296Z,18.90
2022-08-30T06:33:50.863Z,18.90
2022-08-30T06:36:21.060Z,18.90
2022-08-30T06:38:51.726Z,19.00
2022-08-30T06:41:22.384Z,19.00
2022-08-30T06:43:49.747Z,19.00
2022-08-30T06:46:20.249Z,19.10
2022-08-30T06:48:48.438Z,19.10
2022-08-30T06:51:19.832Z,19.10
2022-08-30T06:53:47.178Z,19.20
2022-08-30T06:56:16.931Z,19.20
2022-08-30T06:58:44.463Z,19.30
2022-08-30T07:01:20.880Z,19.30
2022-08-30T07:03:48.027Z,19.40
2022-08-30T07:06:14.904Z,19.40
2022-08-30T07:08:41.707Z,19.40
2022-08-30T07:11:09.045Z,19.50
2022-08-30T07:13:36.952Z,19.50
2022-08-30T07:16:14.532Z,19.60
2022-08-30T07:18:50.691Z,19.70
2022-08-30T07:21:24.543Z,19.80
2022-08-30T07:23:53.551Z,19.90
2022-08-30T07:26:31.945Z,19.90
2022-08-30T07:28:59.303Z,20.00
2022-08-30T07:31:26.347Z,20.10
2022-08-30T07:33:53.301Z,20.10
2022-08-30T07:36:22.034Z,20.20
2022-08-30T07:38:52.734Z,20.30
2022-08-30T07:41:23.703Z,20.40
2022-08-30T07:43:50.777Z,20.50
2022-08-30T07:46:18.483Z,20.60
2022-08-30T07:48:45.341Z,20.70
2022-08-30T07:51:18.043Z,20.80
2022-08-30T07:53:44.886Z,20.90
2022-08-30T07:56:12.036Z,21.00
2022-08-30T07:58:39.732Z,21.10
2022-08-30T08:01:08.772Z,21.20
2022-08-30T08:03:36.401Z,21.30
2022-08-30T08:06:05.242Z,21.40
2022-08-30T08:08:32.812Z,21.50
2022-08-30T08:11:07.076Z,21.70
2022-08-30T08:13:52.669Z,21.80
2022-08-30T08:16:26.802Z,21.90
2022-08-30T08:18:54.922Z,22.00
2022-08-30T08:21:23.225Z,22.10
2022-08-30T08:23:50.391Z,22.20
2022-08-30T08:26:17.782Z,22.30
2022-08-30T08:28:46.424Z,22.50
2022-08-30T08:31:20.434Z,22.60
2022-08-30T08:33:47.447Z,22.80
2022-08-30T08:36:15.052Z,22.90
2022-08-30T08:38:42.371Z,23.00
2022-08-30T08:41:33.758Z,23.10
2022-08-30T08:44:01.202Z,23.20
2022-08-30T08:46:48.313Z,23.30
2022-08-30T08:49:15.442Z,23.40
2022-08-30T08:52:01.073Z,23.50
2022-08-30T08:54:35.554Z,23.50
2022-08-30T08:57:02.497Z,23.70
2022-08-30T08:59:29.494Z,23.80
2022-08-30T09:02:03.045Z,23.90
2022-08-30T09:04:37.705Z,24.00
2022-08-30T09:07:26.117Z,24.10
2022-08-30T09:09:53.110Z,24.20
2022-08-30T09:12:20.975Z,24.30
2022-08-30T09:14:55.426Z,24.40
2022-08-30T09:17:23.434Z,24.60
2022-08-30T09:19:53.627Z,24.70
2022-08-30T09:22:23.174Z,24.70
2022-08-30T09:24:59.354Z,24.70
2022-08-30T09:27:31.053Z,24.70
2022-08-30T09:30:17.492Z,24.80
2022-08-30T09:32:55.217Z,24.90
2022-08-30T09:35:26.156Z,24.90
2022-08-30T09:38:04.227Z,25.00
2022-08-30T09:40:38.948Z,25.10
2022-08-30T09:43:19.899Z,25.30
2022-08-30T09:46:08.741Z,25.30
2022-08-30T09:48:44.117Z,25.50
2022-08-30T09:51:11.528Z,25.50
2022-08-30T10:05:59.085Z,25.30
2022-08-30T10:08:32.358Z,25.10
2022-08-30T10:11:01.363Z,25.20
2022-08-30T10:13:58.790Z,25.40
2022-08-30T10:16:39.400Z,25.50
2022-08-30T10:19:15.414Z,25.80
2022-08-30T10:21:58.597Z,25.90
2022-08-30T10:24:35.911Z,26.00
2022-08-30T10:27:11.308Z,26.20
2022-08-30T10:29:51.395Z,26.40
2022-08-30T10:32:37.826Z,26.70
2022-08-30T10:35:25.465Z,26.80
2022-08-30T10:38:18.614Z,26.90
2022-08-30T10:41:11.292Z,27.00
2022-08-30T10:44:03.084Z,27.20
2022-08-30T10:47:09.015Z,27.30
2022-08-30T10:49:46.901Z,27.40
2022-08-30T10:52:31.338Z,27.50
2022-08-30T10:55:04.632Z,27.60
2022-08-30T10:57:32.858Z,27.70
2022-08-30T11:00:11.090Z,27.70
2022-08-30T11:03:08.513Z,27.70
2022-08-30T11:05:43.119Z,27.80
2022-08-30T11:08:22.009Z,27.90
2022-08-30T11:11:16.018Z,28.00
2022-08-30T11:13:45.048Z,28.10
2022-08-30T11:16:18.842Z,28.20
2022-08-30T11:18:56.407Z,28.20
2022-08-30T11:21:33.765Z,28.30
2022-08-30T11:24:14.521Z,28.40
2022-08-30T11:26:50.166Z,28.50
2022-08-30T11:29:32.751Z,28.70
2022-08-30T11:32:20.213Z,28.90
2022-08-30T11:34:46.998Z,29.00
2022-08-30T11:37:13.731Z,29.00
2022-08-30T11:39:49.324Z,29.00
2022-08-30T11:42:52.869Z,29.10
2022-08-30T11:45:24.746Z,29.20
2022-08-30T11:47:59.528Z,29.30
2022-08-30T11:50:40.654Z,29.50
2022-08-30T11:53:21.486Z,29.70
2022-08-30T11:56:26.491Z,29.80
2022-08-30T11:59:07.258Z,29.50
2022-08-30T12:01:51.093Z,29.50
2022-08-30T12:04:22.815Z,29.60
2022-08-30T12:06:59.809Z,29.70
2022-08-30T12:09:26.538Z,29.90
2022-08-30T12:12:10.990Z,30.00
2022-08-30T12:14:54.781Z,30.10
2022-08-30T12:18:15.182Z,30.20
2022-08-30T12:20:48.326Z,30.20
2022-08-30T12:23:24.675Z,30.20
2022-08-30T12:26:30.294Z,30.20
2022-08-30T12:29:12.147Z,30.40
2022-08-30T12:31:48.572Z,30.60
2022-08-30T12:34:32.294Z,30.80
2022-08-30T12:37:27.580Z,30.90
2022-08-30T12:40:12.235Z,31.00
2022-08-30T12:43:01.667Z,31.00
2022-08-30T12:45:38.719Z,31.00
2022-08-30T12:48:15.708Z,30.90
2022-08-30T12:50:52.226Z,31.00
2022-08-30T12:53:38.653Z,31.20
2022-08-30T12:56:09.648Z,31.40
2022-08-30T12:58:49.520Z,31.40
2022-08-30T13:01:25.233Z,31.40
2022-08-30T13:03:57.987Z,31.40
2022-08-30T13:06:55.984Z,31.30
2022-08-30T13:09:32.530Z,31.30
2022-08-30T13:12:01.646Z,31.30
2022-08-30T13:14:42.357Z,31.30
2022-08-30T13:17:19.441Z,31.30
2022-08-30T13:20:11.550Z,31.40
2022-08-30T13:22:41.401Z,31.50
2022-08-30T13:25:11.919Z,31.60
2022-08-30T13:27:40.279Z,31.70
2022-08-30T13:30:14.624Z,31.70
2022-08-30T13:32:42.580Z,31.60
2022-08-30T13:35:10.125Z,31.40
2022-08-30T13:37:49.941Z,31.30
2022-08-30T13:40:22.277Z,31.30
2022-08-30T13:42:50.252Z,31.40
2022-08-30T13:48:06.960Z,31.10
2022-08-30T13:50:33.795Z,31.10
2022-08-30T13:53:00.547Z,31.30
2022-08-30T13:55:28.015Z,31.40
2022-08-30T13:57:56.504Z,31.50
2022-08-30T14:00:25.302Z,31.50
2022-08-30T14:02:56.154Z,31.40
2022-08-30T14:11:18.386Z,31.20
2022-08-30T14:16:34.446Z,31.20
2022-08-30T14:19:01.879Z,31.10
2022-08-30T14:21:28.923Z,31.10
2022-08-30T14:23:57.641Z,31.10
2022-08-30T14:26:33.169Z,31.00
2022-08-30T14:29:02.011Z,31.00
2022-08-30T14:31:30.199Z,31.00
2022-08-30T14:34:00.302Z,31.00
2022-08-30T14:36:27.065Z,30.90
2022-08-30T14:38:53.783Z,30.70
2022-08-30T14:41:20.497Z,30.50
2022-08-30T14:43:47.250Z,30.30
2022-08-30T14:46:14.223Z,30.20
2022-08-30T14:48:41.814Z,30.10
2022-08-30T14:51:18.661Z,30.00
2022-08-30T14:53:46.292Z,29.90
2022-08-30T14:56:16.264Z,29.90
2022-08-30T14:58:43.578Z,29.90
2022-08-30T15:01:12.466Z,29.80
2022-08-30T15:03:41.301Z,29.70
2022-08-30T15:06:09.060Z,29.70
2022-08-30T15:08:37.139Z,29.90
2022-08-30T15:11:09.491Z,29.90
2022-08-30T15:13:36.694Z,29.90
2022-08-30T15:16:14.408Z,29.90
2022-08-30T15:18:41.883Z,29.90
2022-08-30T15:21:09.690Z,29.90
2022-08-30T15:23:37.227Z,29.80
2022-08-30T15:26:05.281Z,29.70
2022-08-30T15:28:33.384Z,29.60
2022-08-30T15:31:02.161Z,29.60
2022-08-30T15:33:31.987Z,29.50
2022-08-30T15:36:02.621Z,29.40
2022-08-30T15:38:31.219Z,29.30
2022-08-30T15:41:02.216Z,29.30
2022-08-30T15:43:29.486Z,29.20
2022-08-30T15:46:29.405Z,29.20
2022-08-30T15:49:00.587Z,29.20
2022-08-30T15:51:28.570Z,29.00
2022-08-30T15:53:58.345Z,28.90
2022-08-30T15:56:25.633Z,28.80
2022-08-30T15:58:52.928Z,28.80
2022-08-30T16:01:30.197Z,28.80
2022-08-30T16:03:58.783Z,28.80
2022-08-30T16:06:29.655Z,28.70
2022-08-30T16:08:56.516Z,28.80
2022-08-30T16:11:25.084Z,28.80
2022-08-30T16:13:53.534Z,28.80
2022-08-30T16:16:21.517Z,28.70
2022-08-30T16:18:53.946Z,28.60
2022-08-30T16:21:27.534Z,28.60
2022-08-30T16:24:00.160Z,28.50
2022-08-30T16:26:28.643Z,28.30
2022-08-30T16:28:56.183Z,28.20
2022-08-30T16:31:25.976Z,28.10
2022-08-30T16:33:53.968Z,28.10
2022-08-30T16:36:23.118Z,28.10
2022-08-30T16:38:53.463Z,28.10
2022-08-30T16:41:22.372Z,28.00
2022-08-30T16:43:53.238Z,27.90
2022-08-30T16:46:27.016Z,27.90
2022-08-30T16:49:00.122Z,27.80
2022-08-30T16:51:29.375Z,27.80
2022-08-30T16:53:58.545Z,27.90
2022-08-30T16:56:27.166Z,27.80
2022-08-30T16:59:01.383Z,27.80
2022-08-30T17:01:34.966Z,27.70
2022-08-30T17:04:03.575Z,27.60
2022-08-30T17:06:30.524Z,27.60
2022-08-30T17:08:59.141Z,27.50
2022-08-30T17:11:26.390Z,27.30
2022-08-30T17:13:53.816Z,27.20
2022-08-30T17:16:22.688Z,27.10
2022-08-30T17:18:55.510Z,27.00
2022-08-30T17:21:22.335Z,27.00
2022-08-30T17:23:50.467Z,26.90
2022-08-30T17:26:19.008Z,26.90
2022-08-30T17:28:45.980Z,26.80
2022-08-30T17:31:12.922Z,26.90
2022-08-30T17:33:43.053Z,26.80
2022-08-30T17:36:12.620Z,26.90
2022-08-30T17:38:44.831Z,26.80
2022-08-30T17:41:12.813Z,26.80
2022-08-30T17:43:39.698Z,26.70
2022-08-30T17:46:20.752Z,26.70
2022-08-30T17:48:47.807Z,26.60
2022-08-30T17:51:24.831Z,26.60
2022-08-30T17:53:52.088Z,26.50
2022-08-30T17:56:19.149Z,26.50
2022-08-30T17:58:47.434Z,26.40
2022-08-30T18:01:15.274Z,26.30
2022-08-30T18:03:45.560Z,26.30
2022-08-30T18:06:13.397Z,26.30
2022-08-30T18:08:40.880Z,26.20
2022-08-30T18:11:08.574Z,26.20
2022-08-30T18:13:35.879Z,26.20
2022-08-30T18:16:04.072Z,26.10
2022-08-30T18:18:31.963Z,26.10
2022-08-30T18:21:00.008Z,26.00
2022-08-30T18:23:27.937Z,26.00
2022-08-30T18:26:02.917Z,26.00
2022-08-30T18:28:29.899Z,25.90
2022-08-30T18:30:57.975Z,25.90
2022-08-30T18:33:25.903Z,25.80
2022-08-30T18:35:53.598Z,25.80
2022-08-30T18:38:23.772Z,25.70
2022-08-30T18:40:53.107Z,25.70
2022-08-30T18:43:24.674Z,25.70
2022-08-30T18:46:01.720Z,25.70
2022-08-30T18:48:30.287Z,25.60
2022-08-30T18:50:57.389Z,25.60
2022-08-30T18:53:29.068Z,25.60
2022-08-30T18:55:57.198Z,25.50
2022-08-30T18:58:24.158Z,25.50
2022-08-30T19:00:51.651Z,25.40
2022-08-30T19:03:19.109Z,25.40
2022-08-30T19:05:46.410Z,25.30
2022-08-30T19:08:13.858Z,25.20
2022-08-30T19:10:40.845Z,25.10
2022-08-30T19:13:07.735Z,25.00
2022-08-30T19:15:35.218Z,24.90
2022-08-30T19:18:16.577Z,24.80
2022-08-30T19:20:44.992Z,24.80
2022-08-30T19:23:12.421Z,24.80
2022-08-30T19:25:43.550Z,24.80
2022-08-30T19:28:11.784Z,24.70
2022-08-30T19:30:39.496Z,24.70
2022-08-30T19:33:06.637Z,24.60
2022-08-30T19:35:38.442Z,24.60
2022-08-30T19:38:05.552Z,24.60
2022-08-30T19:40:32.369Z,24.50
2022-08-30T19:43:00.106Z,24.40
2022-08-30T19:45:27.377Z,24.40
2022-08-30T19:47:54.487Z,24.40
2022-08-30T19:50:21.923Z,24.30
2022-08-30T19:52:54.165Z,24.30
2022-08-30T19:55:28.180Z,24.20
2022-08-30T19:57:56.061Z,24.10
2022-08-30T20:00:23.516Z,24.10
2022-08-30T20:02:51.471Z,24.10
2022-08-30T20:05:21.322Z,24.10
2022-08-30T20:10:36.515Z,24.00
2022-08-30T20:13:04.900Z,24.00
2022-08-30T20:15:31.900Z,23.90
2022-08-30T20:18:05.538Z,23.90
2022-08-30T20:20:36.526Z,23.90
2022-08-30T20:23:04.633Z,23.90
2022-08-30T20:25:31.831Z,23.80
2022-08-30T20:27:59.371Z,23.80
2022-08-30T20:30:26.364Z,23.70
2022-08-30T20:32:55.127Z,23.60
2022-08-30T20:35:23.623Z,23.50
2022-08-30T20:37:51.005Z,23.50
2022-08-30T20:40:20.019Z,23.40
2022-08-30T20:42:47.554Z,23.30
2022-08-30T20:45:16.947Z,23.30
2022-08-30T20:47:44.430Z,23.20
2022-08-30T20:50:14.204Z,23.30
2022-08-30T20:52:41.807Z,23.30
2022-08-30T20:55:10.041Z,23.30
2022-08-30T20:57:37.088Z,23.20
2022-08-30T21:00:10.483Z,23.20
2022-08-30T21:02:46.220Z,23.20
2022-08-30T21:05:15.644Z,23.10
2022-08-30T21:07:44.564Z,23.10
2022-08-30T21:10:11.978Z,23.10
2022-08-30T21:12:39.379Z,23.00
2022-08-30T21:15:33.994Z,23.00
2022-08-30T21:17:55.301Z,22.90
2022-08-30T21:20:22.837Z,22.90
2022-08-30T21:22:49.868Z,22.80
2022-08-30T21:25:17.269Z,22.80
2022-08-30T21:27:44.419Z,22.70
2022-08-30T21:30:13.658Z,22.70
2022-08-30T21:32:41.401Z,22.70
2022-08-30T21:35:27.964Z,22.60
2022-08-30T21:37:55.518Z,22.50
2022-08-30T21:40:22.756Z,22.40
2022-08-30T21:42:49.819Z,22.40
2022-08-30T21:45:16.827Z,22.40
2022-08-30T21:47:43.984Z,22.40
2022-08-30T21:50:11.966Z,22.30
2022-08-30T21:52:39.030Z,22.30
2022-08-30T21:55:06.504Z,22.30
2022-08-30T21:57:33.316Z,22.30
2022-08-30T22:00:00.095Z,22.20
2022-08-30T22:02:28.384Z,22.20
2022-08-30T22:04:56.052Z,22.10
2022-08-30T22:07:22.877Z,22.10
2022-08-30T22:09:49.701Z,22.00
2022-08-30T22:12:17.001Z,22.00
2022-08-30T22:14:43.915Z,22.00
2022-08-30T22:17:11.469Z,22.00
2022-08-30T22:19:38.317Z,22.00
2022-08-30T22:22:06.064Z,21.90
2022-08-30T22:24:33.089Z,21.90
2022-08-30T22:27:02.144Z,21.90
2022-08-30T22:29:30.083Z,21.90
2022-08-30T22:31:57.219Z,21.80
2022-08-30T22:34:24.630Z,21.80
2022-08-30T22:36:51.793Z,21.80
2022-08-30T22:39:18.648Z,21.80
2022-08-30T22:41:45.643Z,21.80
2022-08-30T22:44:12.881Z,21.70
2022-08-30T22:46:39.744Z,21.70
2022-08-30T22:49:08.977Z,21.70
2022-08-30T22:51:36.965Z,21.70
2022-08-30T22:54:05.662Z,21.60
2022-08-30T22:56:35.486Z,21.60
2022-08-30T22:59:02.721Z,21.60
2022-08-30T23:01:32.268Z,21.50
2022-08-30T23:04:01.137Z,21.50
2022-08-30T23:06:29.222Z,21.50
2022-08-30T23:08:56.445Z,21.40
2022-08-30T23:11:23.657Z,21.40
2022-08-30T23:13:51.075Z,21.40
2022-08-30T23:16:18.938Z,21.40
2022-08-30T23:18:47.096Z,21.40
2022-08-30T23:21:17.664Z,21.30
2022-08-30T23:24:03.176Z,21.30
2022-08-30T23:26:48.955Z,21.30
2022-08-30T23:29:35.228Z,21.30
2022-08-30T23:32:21.127Z,21.20
2022-08-30T23:35:06.377Z,21.20
2022-08-30T23:37:53.050Z,21.10
2022-08-30T23:40:41.040Z,21.20
2022-08-30T23:43:27.763Z,21.10
2022-08-30T23:46:18.897Z,21.10
2022-08-30T23:49:06.151Z,21.10
2022-08-30T23:51:52.813Z,21.10
2022-08-30T23:54:38.193Z,21.10
2022-08-30T23:57:24.175Z,21.10
